EGSS Airport Information

Runway Information
Runway 04 Length 10003 ft width 151 ft
Elevation 324 ft Threshold 0 ft Heading 44
Runway 22 Length 10003 ft Width 151 ft
Elevation 348 ft Threshold 0 ft Heading 224
Airport Frequencies
Type APP Name Essex Rada Frequency 120.625 MHZ
Type ATIS Name ATIS Frequency 127.175 MHZ
Type CLD Name CLNC DEL Frequency 121.95 MHZ
Type DIR Name DIRECTOR Frequency 136.2 MHZ
Type GND Name GND Frequency 121.725 MHZ
Type RDR Name Director Frequency 136.2 MHZ
Type TWR Name TWR Frequency 123.8 MHZ
Airport Navaids
Type VOR-DME Name Barkway Frequency 116250 KHZ
Type NDB Name Stansted Frequency 429 KHZ
Airport Weather Information & NOTAM
ADDS - METARS form results

(1008 UTC 21 April 2019)
Data provider http://aviationweather.gov/metar/data/
 
METAR text: EGSS 210950Z AUTO 09005KT 040V120 9999 NCD 18/09 Q1022
Conditions at: EGSS (STANSTED AIRPORT, GB) observed 0950 UTC 21 April 2019
Temperature: 18.0°C (64°F)
Dewpoint: 9.0°C (48°F) [RH = 56%]
Pressure (altimeter): 30.18 inches Hg (1022.0 mb)
Winds: from the E (90 degrees) at 6 MPH (5 knots; 2.6 m/s)
Visibility: 6 or more miles (10+ km)
Ceiling: at least 12,000 feet AGL
Clouds: sky clear below 12,000 feet AGL
Weather: no significant weather observed at this time

METAR text: EGSS 210920Z AUTO 10004KT 040V150 9999 NCD 17/09 Q1022
Conditions at: EGSS (STANSTED AIRPORT, GB) observed 0920 UTC 21 April 2019
Temperature: 17.0°C (63°F)
Dewpoint: 9.0°C (48°F) [RH = 59%]
Pressure (altimeter): 30.18 inches Hg (1022.0 mb)
Winds: from the E (100 degrees) at 5 MPH (4 knots; 2.1 m/s)
Visibility: 6 or more miles (10+ km)
Ceiling: at least 12,000 feet AGL
Clouds: sky clear below 12,000 feet AGL
Weather: no significant weather observed at this time

Forecast for: EGSS (STANSTED AIRPORT, GB)
Text: TAF EGSS 210453Z 2106/2212 09006KT CAVOK
Forecast period: 0600 UTC 21 April 2019 to 1200 UTC 22 April 2019
Forecast type: FROM: standard forecast or significant change
Winds: from the E (90 degrees) at 7 MPH (6 knots; 3.1 m/s)
Visibility: 6 or more miles 10+ km)
Ceiling: unknown
Clouds: missing
Weather: NSW  (no significant weather)
Text: PROB30 2106/2107 6000
Forecast period: 0600 to 0700 UTC 21 April 2019
Forecast type: PROBABLE: 30 percent likelihood of the following during this time
Visibility: 4 miles (6 km)
Ceiling: unknown
Clouds: missing
Weather: no significant weather forecast for this period